AFR393 LFLC-LFPG
Flight info
| Callsign | AFR393 |
|---|---|
| Flight time | N/A |
| Altitude | 17000 |
| Route | MOU |
| Aircraft | E190/M-SDE3GILORVW/S |
Departure
| Time | N/A |
|---|---|
| Airport | Clermont-Ferrand Auvergne airport (LFLC) |
Arrival
| Time | 2026-05-06 00:03 |
|---|---|
| Airport | Charles de Gaulle International Airport (LFPG) |
| Time | Latitude | Longitude | Altitude | Speed | Heading |
|---|---|---|---|---|---|
| 2026-05-05 23:52 | 48.90461 | 2.25328 | 7640 ft | 282 kts | 266° |
| 2026-05-05 23:53 | 48.90293 | 2.22378 | 7331 ft | 284 kts | 266° |
| 2026-05-05 23:53 | 48.90122 | 2.19394 | 7020 ft | 284 kts | 266° |
| 2026-05-05 23:53 | 48.89949 | 2.16406 | 6705 ft | 283 kts | 266° |
| 2026-05-05 23:53 | 48.89776 | 2.13436 | 6394 ft | 283 kts | 266° |
| 2026-05-05 23:54 | 48.89589 | 2.10484 | 6382 ft | 281 kts | 265° |
| 2026-05-05 23:54 | 48.89368 | 2.07498 | 6398 ft | 282 kts | 264° |
| 2026-05-05 23:54 | 48.89126 | 2.04569 | 6407 ft | 283 kts | 266° |
| 2026-05-05 23:54 | 48.89458 | 2.01653 | 6394 ft | 280 kts | 300° |
| 2026-05-05 23:55 | 48.90753 | 1.99521 | 6412 ft | 271 kts | 333° |
| 2026-05-05 23:55 | 48.92534 | 1.98814 | 6256 ft | 266 kts | 5° |
| 2026-05-05 23:55 | 48.94239 | 1.99705 | 6043 ft | 260 kts | 38° |
| 2026-05-05 23:55 | 48.95290 | 2.01882 | 5823 ft | 257 kts | 68° |
| 2026-05-05 23:56 | 48.95809 | 2.04483 | 5618 ft | 257 kts | 74° |
| 2026-05-05 23:56 | 48.96215 | 2.07132 | 5403 ft | 258 kts | 73° |
| 2026-05-05 23:56 | 48.96657 | 2.09732 | 5195 ft | 255 kts | 74° |
| 2026-05-05 23:56 | 48.96870 | 2.12430 | 4978 ft | 256 kts | 83° |
| 2026-05-05 23:57 | 48.97006 | 2.15115 | 4849 ft | 254 kts | 82° |
| 2026-05-05 23:57 | 48.97142 | 2.17681 | 4769 ft | 229 kts | 82° |
| 2026-05-05 23:57 | 48.97267 | 2.19976 | 4843 ft | 211 kts | 81° |
| 2026-05-05 23:57 | 48.97394 | 2.22222 | 4788 ft | 213 kts | 82° |
| 2026-05-05 23:58 | 48.97522 | 2.24480 | 4534 ft | 216 kts | 82° |
| 2026-05-05 23:58 | 48.97649 | 2.26744 | 4266 ft | 213 kts | 82° |
| 2026-05-05 23:58 | 48.97776 | 2.29000 | 3996 ft | 209 kts | 82° |
| 2026-05-05 23:58 | 48.97897 | 2.31152 | 3752 ft | 200 kts | 81° |
| 2026-05-05 23:59 | 48.98013 | 2.33230 | 3472 ft | 193 kts | 81° |
| 2026-05-05 23:59 | 48.98119 | 2.35153 | 3181 ft | 174 kts | 81° |
| 2026-05-05 23:59 | 48.98215 | 2.36901 | 2913 ft | 157 kts | 81° |
| 2026-05-05 23:59 | 48.98302 | 2.38488 | 2745 ft | 142 kts | 80° |
| 2026-05-06 00:00 | 48.98385 | 2.39971 | 2546 ft | 140 kts | 79° |
| 2026-05-06 00:00 | 48.98467 | 2.41449 | 2347 ft | 141 kts | 79° |
| 2026-05-06 00:00 | 48.98548 | 2.42912 | 2153 ft | 141 kts | 78° |
| 2026-05-06 00:00 | 48.98630 | 2.44408 | 1952 ft | 138 kts | 78° |
| 2026-05-06 00:01 | 48.98705 | 2.45806 | 1747 ft | 123 kts | 77° |
| 2026-05-06 00:01 | 48.98770 | 2.47025 | 1567 ft | 116 kts | 76° |
| 2026-05-06 00:01 | 48.98840 | 2.48260 | 1436 ft | 120 kts | 78° |
| 2026-05-06 00:01 | 48.98903 | 2.49494 | 1210 ft | 120 kts | 76° |
| 2026-05-06 00:02 | 48.98985 | 2.50782 | 1134 ft | 117 kts | 81° |
| 2026-05-06 00:02 | 48.99049 | 2.52009 | 930 ft | 120 kts | 76° |
| 2026-05-06 00:02 | 48.99118 | 2.53304 | 748 ft | 126 kts | 80° |
| 2026-05-06 00:02 | 48.99189 | 2.54593 | 637 ft | 127 kts | 79° |
| 2026-05-06 00:03 | 48.99253 | 2.55925 | 471 ft | 123 kts | 79° |
| 2026-05-06 00:03 | 48.99326 | 2.57251 | 347 ft | 119 kts | 84° |
| 2026-05-06 00:03 | 48.99387 | 2.58345 | 328 ft | 87 kts | 86° |
| 2026-05-06 00:03 | 48.99421 | 2.58993 | 319 ft | 33 kts | 82° |
| 2026-05-06 00:04 | 48.99487 | 2.59326 | 317 ft | 28 kts | 65° |
| 2026-05-06 00:04 | 48.99568 | 2.59594 | 317 ft | 18 kts | 65° |
| 2026-05-06 00:04 | 48.99637 | 2.59695 | 318 ft | 13 kts | 356° |
| 2026-05-06 00:04 | 48.99696 | 2.59710 | 319 ft | 6 kts | 340° |
| 2026-05-06 00:05 | 48.99892 | 2.59667 | 322 ft | 17 kts | 359° |
| 2026-05-06 00:05 | 49.00003 | 2.59651 | 324 ft | 15 kts | 356° |
| 2026-05-06 00:05 | 49.00104 | 2.59640 | 326 ft | 13 kts | 355° |
| 2026-05-06 00:06 | 49.00200 | 2.59628 | 328 ft | 14 kts | 355° |
| 2026-05-06 00:06 | 49.00298 | 2.59623 | 329 ft | 7 kts | 30° |
| 2026-05-06 00:06 | 49.00315 | 2.59710 | 329 ft | 12 kts | 84° |
| 2026-05-06 00:06 | 49.00325 | 2.59881 | 329 ft | 11 kts | 79° |
| 2026-05-06 00:07 | 49.00361 | 2.59964 | 329 ft | 9 kts | 46° |
| 2026-05-06 00:07 | 49.00378 | 2.59992 | 329 ft | 0 kts | 45° |
| 2026-05-06 00:07 | 49.00379 | 2.59994 | 329 ft | 0 kts | 46° |